sensor_id;sensor_type;location;lat;lon;timestamp;P1;durP1;ratioP1;P2;durP2;ratioP2
13408;SDS011;6775;49.574;11.170;2023-06-01T00:00:24;1.77;;;1.57;;
13408;SDS011;6775;49.574;11.170;2023-06-01T00:02:53;2.33;;;1.70;;
13408;SDS011;6775;49.574;11.170;2023-06-01T00:05:21;2.73;;;1.70;;
13408;SDS011;6775;49.574;11.170;2023-06-01T00:07:49;1.70;;;1.50;;
13408;SDS011;6775;49.574;11.170;2023-06-01T00:10:17;2.10;;;1.70;;
13408;SDS011;6775;49.574;11.170;2023-06-01T00:12:45;1.97;;;1.43;;
13408;SDS011;6775;49.574;11.170;2023-06-01T00:15:13;1.77;;;1.50;;
13408;SDS011;6775;49.574;11.170;2023-06-01T00:17:41;2.47;;;1.50;;
13408;SDS011;6775;49.574;11.170;2023-06-01T00:20:10;2.60;;;1.73;;
13408;SDS011;6775;49.574;11.170;2023-06-01T00:22:38;1.40;;;1.20;;
13408;SDS011;6775;49.574;11.170;2023-06-01T00:25:06;2.23;;;1.40;;
13408;SDS011;6775;49.574;11.170;2023-06-01T00:27:35;2.40;;;1.60;;
13408;SDS011;6775;49.574;11.170;2023-06-01T00:30:03;3.13;;;1.80;;
13408;SDS011;6775;49.574;11.170;2023-06-01T00:32:32;3.90;;;1.70;;
13408;SDS011;6775;49.574;11.170;2023-06-01T00:35:00;2.87;;;1.77;;
13408;SDS011;6775;49.574;11.170;2023-06-01T00:37:29;1.33;;;1.23;;
13408;SDS011;6775;49.574;11.170;2023-06-01T00:39:57;2.33;;;1.33;;
13408;SDS011;6775;49.574;11.170;2023-06-01T00:42:24;2.80;;;1.60;;
13408;SDS011;6775;49.574;11.170;2023-06-01T00:44:52;2.23;;;1.30;;
13408;SDS011;6775;49.574;11.170;2023-06-01T00:47:20;2.67;;;1.70;;
13408;SDS011;6775;49.574;11.170;2023-06-01T00:49:48;2.60;;;1.70;;
13408;SDS011;6775;49.574;11.170;2023-06-01T00:52:16;2.80;;;1.70;;
13408;SDS011;6775;49.574;11.170;2023-06-01T00:54:46;3.03;;;1.50;;
13408;SDS011;6775;49.574;11.170;2023-06-01T00:57:14;2.53;;;1.50;;
13408;SDS011;6775;49.574;11.170;2023-06-01T00:59:42;2.77;;;1.60;;
13408;SDS011;6775;49.574;11.170;2023-06-01T01:02:10;3.97;;;1.53;;
13408;SDS011;6775;49.574;11.170;2023-06-01T01:04:41;1.47;;;1.37;;
13408;SDS011;6775;49.574;11.170;2023-06-01T01:07:11;2.77;;;1.60;;
13408;SDS011;6775;49.574;11.170;2023-06-01T01:09:52;1.83;;;1.60;;
13408;SDS011;6775;49.574;11.170;2023-06-01T01:12:38;4.93;;;1.90;;
13408;SDS011;6775;49.574;11.170;2023-06-01T01:15:11;2.50;;;1.50;;
13408;SDS011;6775;49.574;11.170;2023-06-01T01:17:45;1.60;;;1.47;;
13408;SDS011;6775;49.574;11.170;2023-06-01T01:20:18;1.67;;;1.57;;
13408;SDS011;6775;49.574;11.170;2023-06-01T01:23:02;2.23;;;1.60;;
13408;SDS011;6775;49.574;11.170;2023-06-01T01:25:39;3.37;;;1.97;;
13408;SDS011;6775;49.574;11.170;2023-06-01T01:28:35;3.30;;;1.50;;
13408;SDS011;6775;49.574;11.170;2023-06-01T01:31:09;1.77;;;1.50;;
13408;SDS011;6775;49.574;11.170;2023-06-01T01:33:38;2.00;;;1.50;;
13408;SDS011;6775;49.574;11.170;2023-06-01T01:36:08;4.10;;;1.60;;
13408;SDS011;6775;49.574;11.170;2023-06-01T01:38:37;1.87;;;1.50;;
13408;SDS011;6775;49.574;11.170;2023-06-01T01:41:05;1.60;;;1.50;;
13408;SDS011;6775;49.574;11.170;2023-06-01T01:43:35;2.27;;;1.60;;
13408;SDS011;6775;49.574;11.170;2023-06-01T01:46:07;2.80;;;1.80;;
13408;SDS011;6775;49.574;11.170;2023-06-01T01:48:44;1.40;;;1.30;;
13408;SDS011;6775;49.574;11.170;2023-06-01T01:51:19;2.90;;;1.47;;
13408;SDS011;6775;49.574;11.170;2023-06-01T01:53:54;1.60;;;1.47;;
13408;SDS011;6775;49.574;11.170;2023-06-01T01:56:24;3.17;;;1.73;;
13408;SDS011;6775;49.574;11.170;2023-06-01T01:58:54;4.07;;;1.70;;
13408;SDS011;6775;49.574;11.170;2023-06-01T02:01:22;1.43;;;1.27;;
13408;SDS011;6775;49.574;11.170;2023-06-01T02:03:57;1.87;;;1.53;;
13408;SDS011;6775;49.574;11.170;2023-06-01T02:06:26;1.40;;;1.20;;
13408;SDS011;6775;49.574;11.170;2023-06-01T02:08:54;1.90;;;1.40;;
13408;SDS011;6775;49.574;11.170;2023-06-01T02:11:23;1.47;;;1.37;;
13408;SDS011;6775;49.574;11.170;2023-06-01T02:13:51;2.37;;;1.57;;
13408;SDS011;6775;49.574;11.170;2023-06-01T02:16:20;1.93;;;1.53;;
13408;SDS011;6775;49.574;11.170;2023-06-01T02:18:48;2.13;;;1.93;;
13408;SDS011;6775;49.574;11.170;2023-06-01T02:21:16;1.60;;;1.50;;
13408;SDS011;6775;49.574;11.170;2023-06-01T02:23:44;3.63;;;1.53;;
13408;SDS011;6775;49.574;11.170;2023-06-01T02:26:12;2.57;;;1.60;;
13408;SDS011;6775;49.574;11.170;2023-06-01T02:28:40;3.27;;;1.90;;
13408;SDS011;6775;49.574;11.170;2023-06-01T02:31:09;4.10;;;1.50;;
13408;SDS011;6775;49.574;11.170;2023-06-01T02:33:39;2.87;;;1.70;;
13408;SDS011;6775;49.574;11.170;2023-06-01T02:36:06;3.37;;;1.90;;
13408;SDS011;6775;49.574;11.170;2023-06-01T02:38:34;3.57;;;1.80;;
13408;SDS011;6775;49.574;11.170;2023-06-01T02:41:02;3.10;;;2.00;;
13408;SDS011;6775;49.574;11.170;2023-06-01T02:43:33;2.20;;;1.50;;
13408;SDS011;6775;49.574;11.170;2023-06-01T02:46:01;1.90;;;1.53;;
13408;SDS011;6775;49.574;11.170;2023-06-01T02:48:29;2.13;;;1.70;;
13408;SDS011;6775;49.574;11.170;2023-06-01T02:50:58;2.03;;;1.67;;
13408;SDS011;6775;49.574;11.170;2023-06-01T02:53:27;2.50;;;1.80;;
13408;SDS011;6775;49.574;11.170;2023-06-01T02:55:55;2.30;;;2.00;;
13408;SDS011;6775;49.574;11.170;2023-06-01T02:58:23;2.13;;;1.40;;
13408;SDS011;6775;49.574;11.170;2023-06-01T03:00:51;1.73;;;1.47;;
13408;SDS011;6775;49.574;11.170;2023-06-01T03:03:19;2.17;;;1.60;;
13408;SDS011;6775;49.574;11.170;2023-06-01T03:05:47;2.47;;;1.63;;
13408;SDS011;6775;49.574;11.170;2023-06-01T03:08:16;3.37;;;2.07;;
13408;SDS011;6775;49.574;11.170;2023-06-01T03:10:44;3.27;;;1.63;;
13408;SDS011;6775;49.574;11.170;2023-06-01T03:13:12;3.67;;;1.93;;
13408;SDS011;6775;49.574;11.170;2023-06-01T03:15:40;2.73;;;1.63;;
13408;SDS011;6775;49.574;11.170;2023-06-01T03:18:08;4.13;;;2.00;;
13408;SDS011;6775;49.574;11.170;2023-06-01T03:20:36;2.37;;;2.00;;
13408;SDS011;6775;49.574;11.170;2023-06-01T03:23:04;4.90;;;2.10;;
13408;SDS011;6775;49.574;11.170;2023-06-01T03:25:33;4.67;;;1.80;;
13408;SDS011;6775;49.574;11.170;2023-06-01T03:28:01;2.40;;;1.90;;
13408;SDS011;6775;49.574;11.170;2023-06-01T03:30:29;3.13;;;1.90;;
13408;SDS011;6775;49.574;11.170;2023-06-01T03:32:57;1.70;;;1.60;;
13408;SDS011;6775;49.574;11.170;2023-06-01T03:35:26;1.73;;;1.60;;
13408;SDS011;6775;49.574;11.170;2023-06-01T03:37:53;2.90;;;2.00;;
13408;SDS011;6775;49.574;11.170;2023-06-01T03:40:21;3.63;;;2.10;;
13408;SDS011;6775;49.574;11.170;2023-06-01T03:42:50;3.43;;;1.97;;
13408;SDS011;6775;49.574;11.170;2023-06-01T03:45:18;2.77;;;2.10;;
13408;SDS011;6775;49.574;11.170;2023-06-01T03:47:46;2.07;;;1.87;;
13408;SDS011;6775;49.574;11.170;2023-06-01T03:50:14;2.60;;;1.63;;
13408;SDS011;6775;49.574;11.170;2023-06-01T03:52:42;2.77;;;2.17;;
13408;SDS011;6775;49.574;11.170;2023-06-01T03:55:10;3.27;;;1.70;;
13408;SDS011;6775;49.574;11.170;2023-06-01T03:57:39;2.33;;;1.70;;
13408;SDS011;6775;49.574;11.170;2023-06-01T04:00:09;3.27;;;2.00;;
13408;SDS011;6775;49.574;11.170;2023-06-01T04:02:49;2.57;;;1.83;;
13408;SDS011;6775;49.574;11.170;2023-06-01T04:05:18;4.40;;;1.73;;
13408;SDS011;6775;49.574;11.170;2023-06-01T04:07:47;3.47;;;2.17;;
13408;SDS011;6775;49.574;11.170;2023-06-01T04:10:16;3.97;;;2.30;;
13408;SDS011;6775;49.574;11.170;2023-06-01T04:12:45;3.70;;;2.00;;
13408;SDS011;6775;49.574;11.170;2023-06-01T04:15:16;3.83;;;2.20;;
13408;SDS011;6775;49.574;11.170;2023-06-01T04:17:45;2.77;;;1.70;;
13408;SDS011;6775;49.574;11.170;2023-06-01T04:20:14;2.43;;;1.90;;
13408;SDS011;6775;49.574;11.170;2023-06-01T04:22:44;3.90;;;1.93;;
13408;SDS011;6775;49.574;11.170;2023-06-01T04:25:13;2.13;;;1.73;;
13408;SDS011;6775;49.574;11.170;2023-06-01T04:27:45;2.53;;;1.57;;
13408;SDS011;6775;49.574;11.170;2023-06-01T04:30:15;2.47;;;2.20;;
13408;SDS011;6775;49.574;11.170;2023-06-01T04:32:43;3.13;;;2.30;;
13408;SDS011;6775;49.574;11.170;2023-06-01T04:35:15;6.33;;;2.10;;
13408;SDS011;6775;49.574;11.170;2023-06-01T04:37:43;2.90;;;2.23;;
13408;SDS011;6775;49.574;11.170;2023-06-01T04:40:11;2.80;;;1.93;;
13408;SDS011;6775;49.574;11.170;2023-06-01T04:42:40;3.17;;;1.83;;
13408;SDS011;6775;49.574;11.170;2023-06-01T04:45:11;4.50;;;1.90;;
13408;SDS011;6775;49.574;11.170;2023-06-01T04:47:41;2.30;;;2.10;;
13408;SDS011;6775;49.574;11.170;2023-06-01T04:50:11;2.37;;;2.17;;
13408;SDS011;6775;49.574;11.170;2023-06-01T04:52:42;2.30;;;2.03;;
13408;SDS011;6775;49.574;11.170;2023-06-01T04:55:10;2.57;;;1.60;;
13408;SDS011;6775;49.574;11.170;2023-06-01T04:57:39;2.30;;;2.00;;
13408;SDS011;6775;49.574;11.170;2023-06-01T05:00:10;3.37;;;1.90;;
13408;SDS011;6775;49.574;11.170;2023-06-01T05:02:41;2.23;;;1.90;;
13408;SDS011;6775;49.574;11.170;2023-06-01T05:05:10;2.77;;;1.60;;
13408;SDS011;6775;49.574;11.170;2023-06-01T05:07:39;2.23;;;1.80;;
13408;SDS011;6775;49.574;11.170;2023-06-01T05:10:08;3.30;;;2.23;;
13408;SDS011;6775;49.574;11.170;2023-06-01T05:12:37;2.47;;;1.60;;
13408;SDS011;6775;49.574;11.170;2023-06-01T05:15:06;2.30;;;1.83;;
13408;SDS011;6775;49.574;11.170;2023-06-01T05:17:35;2.63;;;2.07;;
13408;SDS011;6775;49.574;11.170;2023-06-01T05:20:06;2.17;;;1.97;;
13408;SDS011;6775;49.574;11.170;2023-06-01T05:22:37;2.97;;;1.60;;
13408;SDS011;6775;49.574;11.170;2023-06-01T05:25:05;1.93;;;1.80;;
13408;SDS011;6775;49.574;11.170;2023-06-01T05:27:33;3.23;;;1.73;;
13408;SDS011;6775;49.574;11.170;2023-06-01T05:30:01;1.60;;;1.50;;
13408;SDS011;6775;49.574;11.170;2023-06-01T05:32:30;1.77;;;1.67;;
13408;SDS011;6775;49.574;11.170;2023-06-01T05:34:57;3.20;;;1.63;;
13408;SDS011;6775;49.574;11.170;2023-06-01T05:37:27;2.27;;;1.50;;
13408;SDS011;6775;49.574;11.170;2023-06-01T05:39:54;1.20;;;1.10;;
13408;SDS011;6775;49.574;11.170;2023-06-01T05:42:22;1.77;;;1.20;;
13408;SDS011;6775;49.574;11.170;2023-06-01T05:44:50;1.30;;;1.07;;
13408;SDS011;6775;49.574;11.170;2023-06-01T05:47:18;1.30;;;1.07;;
13408;SDS011;6775;49.574;11.170;2023-06-01T05:49:46;1.87;;;1.17;;
13408;SDS011;6775;49.574;11.170;2023-06-01T05:52:14;1.43;;;1.17;;
13408;SDS011;6775;49.574;11.170;2023-06-01T05:54:43;1.23;;;1.13;;
13408;SDS011;6775;49.574;11.170;2023-06-01T05:57:11;1.23;;;0.90;;
13408;SDS011;6775;49.574;11.170;2023-06-01T05:59:39;1.00;;;0.93;;
13408;SDS011;6775;49.574;11.170;2023-06-01T06:02:08;1.50;;;0.87;;
13408;SDS011;6775;49.574;11.170;2023-06-01T06:04:36;1.53;;;1.00;;
13408;SDS011;6775;49.574;11.170;2023-06-01T06:07:05;1.00;;;0.90;;
13408;SDS011;6775;49.574;11.170;2023-06-01T06:09:33;1.00;;;0.90;;
13408;SDS011;6775;49.574;11.170;2023-06-01T06:12:02;1.77;;;1.13;;
13408;SDS011;6775;49.574;11.170;2023-06-01T06:14:32;1.83;;;0.93;;
13408;SDS011;6775;49.574;11.170;2023-06-01T06:17:00;1.10;;;1.00;;
13408;SDS011;6775;49.574;11.170;2023-06-01T06:19:28;1.03;;;0.93;;
13408;SDS011;6775;49.574;11.170;2023-06-01T06:21:57;1.47;;;1.00;;
13408;SDS011;6775;49.574;11.170;2023-06-01T06:24:24;1.10;;;1.00;;
13408;SDS011;6775;49.574;11.170;2023-06-01T06:26:52;1.23;;;1.10;;
13408;SDS011;6775;49.574;11.170;2023-06-01T06:29:21;0.90;;;0.90;;
13408;SDS011;6775;49.574;11.170;2023-06-01T06:31:49;1.90;;;1.20;;
13408;SDS011;6775;49.574;11.170;2023-06-01T06:34:17;1.10;;;0.97;;
13408;SDS011;6775;49.574;11.170;2023-06-01T06:36:45;0.87;;;0.83;;
13408;SDS011;6775;49.574;11.170;2023-06-01T06:39:13;1.10;;;1.00;;
13408;SDS011;6775;49.574;11.170;2023-06-01T06:41:42;2.00;;;1.07;;
13408;SDS011;6775;49.574;11.170;2023-06-01T06:44:09;1.67;;;1.10;;
13408;SDS011;6775;49.574;11.170;2023-06-01T06:46:39;1.47;;;1.20;;
13408;SDS011;6775;49.574;11.170;2023-06-01T06:49:06;1.47;;;1.37;;
13408;SDS011;6775;49.574;11.170;2023-06-01T06:51:36;1.97;;;1.40;;
13408;SDS011;6775;49.574;11.170;2023-06-01T06:54:05;1.63;;;1.10;;
13408;SDS011;6775;49.574;11.170;2023-06-01T06:56:33;1.40;;;1.10;;
13408;SDS011;6775;49.574;11.170;2023-06-01T06:59:01;3.03;;;1.53;;
13408;SDS011;6775;49.574;11.170;2023-06-01T07:01:33;1.40;;;1.20;;
13408;SDS011;6775;49.574;11.170;2023-06-01T07:04:08;2.13;;;1.40;;
13408;SDS011;6775;49.574;11.170;2023-06-01T07:06:36;1.67;;;1.00;;
13408;SDS011;6775;49.574;11.170;2023-06-01T07:09:04;1.37;;;1.17;;
13408;SDS011;6775;49.574;11.170;2023-06-01T07:11:33;1.30;;;1.20;;
13408;SDS011;6775;49.574;11.170;2023-06-01T07:14:01;1.67;;;1.47;;
13408;SDS011;6775;49.574;11.170;2023-06-01T07:16:29;1.20;;;1.00;;
13408;SDS011;6775;49.574;11.170;2023-06-01T07:18:57;2.13;;;1.40;;
13408;SDS011;6775;49.574;11.170;2023-06-01T07:21:26;1.40;;;1.30;;
13408;SDS011;6775;49.574;11.170;2023-06-01T07:23:54;2.27;;;1.50;;
13408;SDS011;6775;49.574;11.170;2023-06-01T07:26:22;2.13;;;1.33;;
13408;SDS011;6775;49.574;11.170;2023-06-01T07:28:51;2.40;;;1.23;;
13408;SDS011;6775;49.574;11.170;2023-06-01T07:31:19;2.13;;;1.43;;
13408;SDS011;6775;49.574;11.170;2023-06-01T07:33:47;1.97;;;1.40;;
13408;SDS011;6775;49.574;11.170;2023-06-01T07:36:18;2.23;;;1.60;;
13408;SDS011;6775;49.574;11.170;2023-06-01T07:38:47;4.80;;;1.97;;
13408;SDS011;6775;49.574;11.170;2023-06-01T07:41:15;4.20;;;2.00;;
13408;SDS011;6775;49.574;11.170;2023-06-01T07:43:43;7.27;;;2.37;;
13408;SDS011;6775;49.574;11.170;2023-06-01T07:46:11;4.40;;;2.03;;
13408;SDS011;6775;49.574;11.170;2023-06-01T07:48:39;14.00;;;3.13;;
13408;SDS011;6775;49.574;11.170;2023-06-01T07:51:07;3.40;;;2.00;;
13408;SDS011;6775;49.574;11.170;2023-06-01T07:53:35;6.43;;;2.03;;
13408;SDS011;6775;49.574;11.170;2023-06-01T07:56:04;6.73;;;2.63;;
13408;SDS011;6775;49.574;11.170;2023-06-01T07:58:32;6.90;;;2.03;;
13408;SDS011;6775;49.574;11.170;2023-06-01T08:01:00;3.67;;;1.70;;
13408;SDS011;6775;49.574;11.170;2023-06-01T08:03:29;2.30;;;1.63;;
13408;SDS011;6775;49.574;11.170;2023-06-01T08:05:59;2.33;;;1.40;;
13408;SDS011;6775;49.574;11.170;2023-06-01T08:08:32;2.03;;;1.43;;
13408;SDS011;6775;49.574;11.170;2023-06-01T08:11:00;2.63;;;1.37;;
13408;SDS011;6775;49.574;11.170;2023-06-01T08:13:29;1.53;;;1.40;;
13408;SDS011;6775;49.574;11.170;2023-06-01T08:15:57;1.90;;;1.33;;
13408;SDS011;6775;49.574;11.170;2023-06-01T08:18:26;2.40;;;1.80;;
13408;SDS011;6775;49.574;11.170;2023-06-01T08:20:55;4.33;;;2.07;;
13408;SDS011;6775;49.574;11.170;2023-06-01T08:23:22;1.90;;;1.50;;
13408;SDS011;6775;49.574;11.170;2023-06-01T08:25:50;2.70;;;1.70;;
13408;SDS011;6775;49.574;11.170;2023-06-01T08:28:18;1.97;;;1.87;;
13408;SDS011;6775;49.574;11.170;2023-06-01T08:30:48;2.90;;;1.60;;
13408;SDS011;6775;49.574;11.170;2023-06-01T08:33:16;1.50;;;1.30;;
13408;SDS011;6775;49.574;11.170;2023-06-01T08:35:44;1.83;;;1.37;;
13408;SDS011;6775;49.574;11.170;2023-06-01T08:38:12;1.33;;;1.20;;
13408;SDS011;6775;49.574;11.170;2023-06-01T08:40:40;2.17;;;1.33;;
13408;SDS011;6775;49.574;11.170;2023-06-01T08:43:09;1.97;;;1.43;;
13408;SDS011;6775;49.574;11.170;2023-06-01T08:45:41;2.07;;;1.23;;
13408;SDS011;6775;49.574;11.170;2023-06-01T08:48:13;2.60;;;1.50;;
13408;SDS011;6775;49.574;11.170;2023-06-01T08:50:44;1.40;;;1.20;;
13408;SDS011;6775;49.574;11.170;2023-06-01T08:53:16;1.47;;;1.37;;
13408;SDS011;6775;49.574;11.170;2023-06-01T08:55:50;2.07;;;1.43;;
13408;SDS011;6775;49.574;11.170;2023-06-01T08:58:18;1.43;;;1.33;;
13408;SDS011;6775;49.574;11.170;2023-06-01T09:00:47;1.17;;;1.07;;
13408;SDS011;6775;49.574;11.170;2023-06-01T09:03:16;2.20;;;1.47;;
13408;SDS011;6775;49.574;11.170;2023-06-01T09:05:44;1.50;;;1.40;;
13408;SDS011;6775;49.574;11.170;2023-06-01T09:08:12;1.60;;;1.17;;
13408;SDS011;6775;49.574;11.170;2023-06-01T09:10:41;6.30;;;1.70;;
13408;SDS011;6775;49.574;11.170;2023-06-01T09:13:09;2.60;;;1.50;;
13408;SDS011;6775;49.574;11.170;2023-06-01T09:15:38;1.53;;;1.20;;
13408;SDS011;6775;49.574;11.170;2023-06-01T09:18:19;1.37;;;1.23;;
13408;SDS011;6775;49.574;11.170;2023-06-01T09:20:47;1.50;;;1.30;;
13408;SDS011;6775;49.574;11.170;2023-06-01T09:23:22;1.70;;;1.40;;
13408;SDS011;6775;49.574;11.170;2023-06-01T09:26:03;2.13;;;1.43;;
13408;SDS011;6775;49.574;11.170;2023-06-01T09:31:36;1.57;;;1.20;;
13408;SDS011;6775;49.574;11.170;2023-06-01T09:34:07;3.33;;;1.30;;
13408;SDS011;6775;49.574;11.170;2023-06-01T09:36:37;3.83;;;1.77;;
13408;SDS011;6775;49.574;11.170;2023-06-01T09:39:06;1.50;;;1.40;;
13408;SDS011;6775;49.574;11.170;2023-06-01T09:41:44;2.00;;;1.57;;
13408;SDS011;6775;49.574;11.170;2023-06-01T09:44:24;2.20;;;1.33;;
13408;SDS011;6775;49.574;11.170;2023-06-01T09:46:54;1.70;;;1.40;;
13408;SDS011;6775;49.574;11.170;2023-06-01T09:49:24;1.57;;;1.47;;
13408;SDS011;6775;49.574;11.170;2023-06-01T09:52:07;2.30;;;1.57;;
13408;SDS011;6775;49.574;11.170;2023-06-01T09:54:39;3.17;;;1.90;;
13408;SDS011;6775;49.574;11.170;2023-06-01T09:57:09;1.40;;;1.30;;
13408;SDS011;6775;49.574;11.170;2023-06-01T09:59:39;3.33;;;1.53;;
13408;SDS011;6775;49.574;11.170;2023-06-01T10:02:11;2.33;;;1.20;;
13408;SDS011;6775;49.574;11.170;2023-06-01T10:04:44;2.00;;;1.50;;
13408;SDS011;6775;49.574;11.170;2023-06-01T10:07:14;3.80;;;1.47;;
13408;SDS011;6775;49.574;11.170;2023-06-01T10:09:44;1.80;;;1.50;;
13408;SDS011;6775;49.574;11.170;2023-06-01T10:12:15;2.50;;;1.40;;
13408;SDS011;6775;49.574;11.170;2023-06-01T10:14:43;1.90;;;1.40;;
13408;SDS011;6775;49.574;11.170;2023-06-01T10:17:11;1.77;;;1.50;;
13408;SDS011;6775;49.574;11.170;2023-06-01T10:19:43;2.70;;;1.67;;
13408;SDS011;6775;49.574;11.170;2023-06-01T10:22:12;3.33;;;1.57;;
13408;SDS011;6775;49.574;11.170;2023-06-01T10:24:40;2.83;;;1.77;;
13408;SDS011;6775;49.574;11.170;2023-06-01T10:27:11;2.50;;;1.70;;
13408;SDS011;6775;49.574;11.170;2023-06-01T10:29:46;1.27;;;1.17;;
13408;SDS011;6775;49.574;11.170;2023-06-01T10:35:11;1.87;;;1.60;;
13408;SDS011;6775;49.574;11.170;2023-06-01T10:38:29;2.23;;;1.40;;
13408;SDS011;6775;49.574;11.170;2023-06-01T10:43:57;1.50;;;1.33;;
13408;SDS011;6775;49.574;11.170;2023-06-01T10:46:35;1.70;;;1.60;;
13408;SDS011;6775;49.574;11.170;2023-06-01T10:49:11;2.37;;;1.30;;
13408;SDS011;6775;49.574;11.170;2023-06-01T10:51:40;1.80;;;1.40;;
13408;SDS011;6775;49.574;11.170;2023-06-01T10:54:23;1.63;;;1.37;;
13408;SDS011;6775;49.574;11.170;2023-06-01T10:57:17;1.70;;;1.13;;
13408;SDS011;6775;49.574;11.170;2023-06-01T11:02:42;2.13;;;1.93;;
13408;SDS011;6775;49.574;11.170;2023-06-01T11:05:33;2.13;;;1.40;;
13408;SDS011;6775;49.574;11.170;2023-06-01T11:11:22;1.97;;;1.53;;
13408;SDS011;6775;49.574;11.170;2023-06-01T11:14:07;1.63;;;1.53;;
13408;SDS011;6775;49.574;11.170;2023-06-01T11:16:37;1.87;;;1.67;;
13408;SDS011;6775;49.574;11.170;2023-06-01T11:19:05;2.00;;;1.43;;
13408;SDS011;6775;49.574;11.170;2023-06-01T11:21:36;1.60;;;1.50;;
13408;SDS011;6775;49.574;11.170;2023-06-01T11:24:09;4.07;;;2.00;;
13408;SDS011;6775;49.574;11.170;2023-06-01T11:26:39;1.43;;;1.10;;
13408;SDS011;6775;49.574;11.170;2023-06-01T11:29:09;2.70;;;1.40;;
13408;SDS011;6775;49.574;11.170;2023-06-01T11:31:40;3.37;;;1.60;;
13408;SDS011;6775;49.574;11.170;2023-06-01T11:34:10;2.37;;;1.60;;
13408;SDS011;6775;49.574;11.170;2023-06-01T11:36:40;1.60;;;1.50;;
13408;SDS011;6775;49.574;11.170;2023-06-01T11:39:17;2.67;;;1.80;;
13408;SDS011;6775;49.574;11.170;2023-06-01T11:41:48;1.73;;;1.50;;
13408;SDS011;6775;49.574;11.170;2023-06-01T11:44:17;1.73;;;1.63;;
13408;SDS011;6775;49.574;11.170;2023-06-01T11:46:51;1.97;;;1.60;;
13408;SDS011;6775;49.574;11.170;2023-06-01T11:49:20;1.83;;;1.63;;
13408;SDS011;6775;49.574;11.170;2023-06-01T11:51:48;2.20;;;1.40;;
13408;SDS011;6775;49.574;11.170;2023-06-01T11:54:22;2.10;;;1.77;;
13408;SDS011;6775;49.574;11.170;2023-06-01T11:56:52;2.47;;;1.47;;
13408;SDS011;6775;49.574;11.170;2023-06-01T11:59:24;3.00;;;1.83;;
13408;SDS011;6775;49.574;11.170;2023-06-01T12:01:54;3.00;;;1.50;;
13408;SDS011;6775;49.574;11.170;2023-06-01T12:04:23;1.70;;;1.40;;
13408;SDS011;6775;49.574;11.170;2023-06-01T12:06:59;3.13;;;1.33;;
13408;SDS011;6775;49.574;11.170;2023-06-01T12:09:34;2.50;;;1.90;;
13408;SDS011;6775;49.574;11.170;2023-06-01T12:12:02;1.90;;;1.50;;
13408;SDS011;6775;49.574;11.170;2023-06-01T12:14:33;2.00;;;1.60;;
13408;SDS011;6775;49.574;11.170;2023-06-01T12:17:01;6.20;;;1.70;;
13408;SDS011;6775;49.574;11.170;2023-06-01T12:19:31;2.30;;;1.70;;
13408;SDS011;6775;49.574;11.170;2023-06-01T12:22:01;1.93;;;1.53;;
13408;SDS011;6775;49.574;11.170;2023-06-01T12:24:30;2.00;;;1.47;;
13408;SDS011;6775;49.574;11.170;2023-06-01T12:27:01;1.43;;;1.30;;
13408;SDS011;6775;49.574;11.170;2023-06-01T12:29:39;5.43;;;1.60;;
13408;SDS011;6775;49.574;11.170;2023-06-01T12:32:09;1.87;;;1.67;;
13408;SDS011;6775;49.574;11.170;2023-06-01T12:34:39;2.30;;;1.60;;
13408;SDS011;6775;49.574;11.170;2023-06-01T12:37:13;2.60;;;1.60;;
13408;SDS011;6775;49.574;11.170;2023-06-01T12:39:42;1.40;;;1.30;;
13408;SDS011;6775;49.574;11.170;2023-06-01T12:42:12;4.87;;;1.90;;
13408;SDS011;6775;49.574;11.170;2023-06-01T12:44:40;2.30;;;1.83;;
13408;SDS011;6775;49.574;11.170;2023-06-01T12:47:08;2.43;;;1.60;;
13408;SDS011;6775;49.574;11.170;2023-06-01T12:49:36;3.20;;;1.50;;
13408;SDS011;6775;49.574;11.170;2023-06-01T12:52:06;2.07;;;1.53;;
13408;SDS011;6775;49.574;11.170;2023-06-01T12:54:35;1.60;;;1.50;;
13408;SDS011;6775;49.574;11.170;2023-06-01T12:57:03;1.70;;;1.43;;
13408;SDS011;6775;49.574;11.170;2023-06-01T12:59:32;2.03;;;1.80;;
13408;SDS011;6775;49.574;11.170;2023-06-01T13:02:00;2.20;;;1.70;;
13408;SDS011;6775;49.574;11.170;2023-06-01T13:04:28;2.63;;;1.70;;
13408;SDS011;6775;49.574;11.170;2023-06-01T13:06:56;2.27;;;1.57;;
13408;SDS011;6775;49.574;11.170;2023-06-01T13:09:24;1.93;;;1.67;;
13408;SDS011;6775;49.574;11.170;2023-06-01T13:11:51;1.57;;;1.47;;
13408;SDS011;6775;49.574;11.170;2023-06-01T13:14:19;1.33;;;1.23;;
13408;SDS011;6775;49.574;11.170;2023-06-01T13:16:49;1.93;;;1.30;;
13408;SDS011;6775;49.574;11.170;2023-06-01T13:19:17;3.67;;;1.90;;
13408;SDS011;6775;49.574;11.170;2023-06-01T13:21:45;1.70;;;1.60;;
13408;SDS011;6775;49.574;11.170;2023-06-01T13:24:13;1.77;;;1.10;;
13408;SDS011;6775;49.574;11.170;2023-06-01T13:26:40;1.57;;;1.47;;
13408;SDS011;6775;49.574;11.170;2023-06-01T13:29:09;1.63;;;1.30;;
13408;SDS011;6775;49.574;11.170;2023-06-01T13:31:37;2.17;;;1.70;;
13408;SDS011;6775;49.574;11.170;2023-06-01T13:34:06;3.13;;;1.80;;
13408;SDS011;6775;49.574;11.170;2023-06-01T13:36:34;1.63;;;1.50;;
13408;SDS011;6775;49.574;11.170;2023-06-01T13:39:02;2.70;;;1.60;;
13408;SDS011;6775;49.574;11.170;2023-06-01T13:41:30;2.00;;;1.73;;
13408;SDS011;6775;49.574;11.170;2023-06-01T13:43:58;2.50;;;1.60;;
13408;SDS011;6775;49.574;11.170;2023-06-01T13:46:26;2.20;;;1.70;;
13408;SDS011;6775;49.574;11.170;2023-06-01T13:48:54;2.27;;;1.80;;
13408;SDS011;6775;49.574;11.170;2023-06-01T13:51:23;1.97;;;1.40;;
13408;SDS011;6775;49.574;11.170;2023-06-01T13:53:51;2.10;;;1.60;;
13408;SDS011;6775;49.574;11.170;2023-06-01T13:56:19;2.23;;;1.47;;
13408;SDS011;6775;49.574;11.170;2023-06-01T13:58:49;1.43;;;1.30;;
13408;SDS011;6775;49.574;11.170;2023-06-01T14:01:17;2.47;;;1.40;;
13408;SDS011;6775;49.574;11.170;2023-06-01T14:03:47;1.93;;;1.30;;
13408;SDS011;6775;49.574;11.170;2023-06-01T14:06:15;2.50;;;1.47;;
13408;SDS011;6775;49.574;11.170;2023-06-01T14:08:46;1.57;;;1.30;;
13408;SDS011;6775;49.574;11.170;2023-06-01T14:11:15;2.03;;;1.37;;
13408;SDS011;6775;49.574;11.170;2023-06-01T14:13:42;2.00;;;1.50;;
13408;SDS011;6775;49.574;11.170;2023-06-01T14:16:10;1.63;;;1.53;;
13408;SDS011;6775;49.574;11.170;2023-06-01T14:18:38;1.80;;;1.70;;
13408;SDS011;6775;49.574;11.170;2023-06-01T14:21:06;1.97;;;1.37;;
13408;SDS011;6775;49.574;11.170;2023-06-01T14:23:35;1.43;;;1.33;;
13408;SDS011;6775;49.574;11.170;2023-06-01T14:26:05;2.30;;;1.43;;
13408;SDS011;6775;49.574;11.170;2023-06-01T14:28:33;1.97;;;1.17;;
13408;SDS011;6775;49.574;11.170;2023-06-01T14:31:00;1.37;;;1.27;;
13408;SDS011;6775;49.574;11.170;2023-06-01T14:33:29;1.47;;;1.23;;
13408;SDS011;6775;49.574;11.170;2023-06-01T14:35:57;3.40;;;1.60;;
13408;SDS011;6775;49.574;11.170;2023-06-01T14:38:25;2.00;;;1.20;;
13408;SDS011;6775;49.574;11.170;2023-06-01T14:40:53;2.93;;;1.63;;
13408;SDS011;6775;49.574;11.170;2023-06-01T14:43:22;1.93;;;1.37;;
13408;SDS011;6775;49.574;11.170;2023-06-01T14:45:50;1.63;;;1.30;;
13408;SDS011;6775;49.574;11.170;2023-06-01T14:48:18;1.27;;;1.13;;
13408;SDS011;6775;49.574;11.170;2023-06-01T14:50:46;1.73;;;1.30;;
13408;SDS011;6775;49.574;11.170;2023-06-01T14:53:14;1.40;;;1.27;;
13408;SDS011;6775;49.574;11.170;2023-06-01T14:55:41;1.77;;;1.23;;
13408;SDS011;6775;49.574;11.170;2023-06-01T14:58:10;1.73;;;1.40;;
13408;SDS011;6775;49.574;11.170;2023-06-01T15:00:39;1.57;;;1.10;;
13408;SDS011;6775;49.574;11.170;2023-06-01T15:03:07;2.90;;;1.67;;
13408;SDS011;6775;49.574;11.170;2023-06-01T15:05:35;1.93;;;1.27;;
13408;SDS011;6775;49.574;11.170;2023-06-01T15:08:04;1.77;;;1.30;;
13408;SDS011;6775;49.574;11.170;2023-06-01T15:10:33;1.23;;;1.10;;
13408;SDS011;6775;49.574;11.170;2023-06-01T15:13:01;1.37;;;1.20;;
13408;SDS011;6775;49.574;11.170;2023-06-01T15:15:29;1.30;;;1.20;;
13408;SDS011;6775;49.574;11.170;2023-06-01T15:17:58;3.47;;;1.50;;